createdAt,value
2023-01-11T00:01:33.381Z,10.85
2023-01-11T00:04:34.955Z,9.50
2023-01-11T00:07:36.419Z,9.45
2023-01-11T00:10:38.313Z,9.40
2023-01-11T00:13:39.766Z,9.32
2023-01-11T00:16:41.261Z,9.10
2023-01-11T00:19:48.901Z,9.15
2023-01-11T00:23:06.520Z,10.55
2023-01-11T00:26:12.188Z,9.70
2023-01-11T00:29:13.813Z,9.48
2023-01-11T00:32:15.287Z,9.68
2023-01-11T00:35:16.742Z,8.10
2023-01-11T00:38:22.695Z,7.18
2023-01-11T00:41:24.187Z,7.25
2023-01-11T00:44:25.676Z,8.07
2023-01-11T00:47:27.124Z,8.00
2023-01-11T00:50:36.647Z,7.10
2023-01-11T00:53:38.096Z,6.47
2023-01-11T00:56:39.645Z,6.25
2023-01-11T00:59:41.317Z,6.43
2023-01-11T01:02:42.868Z,6.75
2023-01-11T01:05:44.391Z,6.45
2023-01-11T01:08:45.914Z,5.97
2023-01-11T01:11:47.382Z,6.05
2023-01-11T01:14:48.854Z,6.65
2023-01-11T01:17:53.585Z,6.07
2023-01-11T01:20:55.094Z,6.05
2023-01-11T01:23:57.249Z,6.13
2023-01-11T01:26:58.724Z,6.05
2023-01-11T01:30:00.298Z,5.75
2023-01-11T01:33:01.772Z,6.05
2023-01-11T01:36:04.430Z,6.80
2023-01-11T01:39:07.298Z,7.05
2023-01-11T01:42:15.014Z,7.10
2023-01-11T01:45:23.055Z,6.57
2023-01-11T01:48:24.624Z,6.95
2023-01-11T01:51:49.194Z,6.80
2023-01-11T01:54:50.690Z,6.03
2023-01-11T01:57:53.500Z,5.75
2023-01-11T02:00:55.058Z,5.38
2023-01-11T02:03:56.671Z,6.00
2023-01-11T02:07:06.480Z,5.43
2023-01-11T02:10:17.963Z,5.47
2023-01-11T02:13:20.650Z,4.75
2023-01-11T02:16:22.293Z,4.75
2023-01-11T02:19:44.260Z,5.03
2023-01-11T02:22:48.719Z,5.70
2023-01-11T02:25:52.989Z,6.05
2023-01-11T02:29:04.501Z,7.07
2023-01-11T02:32:45.643Z,7.10
2023-01-11T02:36:26.321Z,7.22
2023-01-11T02:40:03.613Z,6.97
2023-01-11T02:43:18.531Z,7.32
2023-01-11T02:46:30.072Z,7.05
2023-01-11T02:49:40.163Z,6.18
2023-01-11T02:52:50.229Z,6.07
2023-01-11T02:55:57.006Z,4.90
2023-01-11T02:58:59.332Z,5.50
2023-01-11T03:02:00.865Z,5.30
2023-01-11T03:05:02.390Z,5.38
2023-01-11T03:08:19.251Z,4.10
2023-01-11T03:11:28.264Z,3.10
2023-01-11T03:14:41.829Z,3.20
2023-01-11T03:18:05.081Z,3.43
2023-01-11T03:21:28.431Z,3.35
2023-01-11T03:24:33.556Z,4.35
2023-01-11T03:28:04.775Z,5.18
2023-01-11T03:31:20.469Z,4.30
2023-01-11T03:34:46.526Z,3.90
2023-01-11T03:37:58.819Z,3.70
2023-01-11T03:41:12.725Z,3.38
2023-01-11T03:44:16.831Z,3.78
2023-01-11T03:50:23.335Z,3.10
2023-01-11T03:53:27.378Z,2.97
2023-01-11T03:57:04.155Z,2.90
2023-01-11T04:00:07.553Z,2.60
2023-01-11T04:03:10.207Z,3.33
2023-01-11T04:06:12.160Z,2.80
2023-01-11T04:09:13.627Z,3.03
2023-01-11T04:12:15.098Z,2.60
2023-01-11T04:15:17.054Z,2.45
2023-01-11T04:18:18.471Z,3.35
2023-01-11T04:21:19.967Z,2.97
2023-01-11T04:24:21.635Z,3.00
2023-01-11T04:27:23.116Z,3.22
2023-01-11T04:30:25.499Z,3.72
2023-01-11T04:33:26.972Z,3.03
2023-01-11T04:36:28.740Z,3.03
2023-01-11T04:39:30.234Z,3.75
2023-01-11T04:42:31.731Z,3.65
2023-01-11T04:45:33.254Z,3.45
2023-01-11T04:48:34.705Z,4.00
2023-01-11T04:51:36.201Z,3.28
2023-01-11T04:54:38.154Z,3.58
2023-01-11T04:57:39.707Z,3.20
2023-01-11T05:00:41.243Z,2.85
2023-01-11T05:03:43.681Z,3.28
2023-01-11T05:06:45.772Z,3.00
2023-01-11T05:09:47.319Z,3.10
2023-01-11T05:12:48.962Z,2.10
2023-01-11T05:15:50.445Z,2.75
2023-01-11T05:18:52.993Z,3.05
2023-01-11T05:21:54.460Z,3.25
2023-01-11T05:24:55.931Z,3.88
2023-01-11T05:27:57.368Z,3.10
2023-01-11T05:30:58.901Z,2.75
2023-01-11T05:34:00.725Z,2.80
2023-01-11T05:37:02.236Z,2.10
2023-01-11T05:40:06.297Z,2.72
2023-01-11T05:43:07.741Z,2.50
2023-01-11T05:46:09.242Z,3.08
2023-01-11T05:49:12.483Z,2.60
2023-01-11T05:52:14.009Z,2.27
2023-01-11T05:55:15.951Z,3.15
2023-01-11T05:58:17.443Z,2.65
2023-01-11T06:01:20.961Z,2.30
2023-01-11T06:04:22.411Z,2.28
2023-01-11T06:07:23.829Z,2.13
2023-01-11T06:10:25.358Z,2.53
2023-01-11T06:13:27.217Z,2.25
2023-01-11T06:16:28.820Z,2.78
2023-01-11T06:19:30.344Z,1.83
2023-01-11T06:22:31.829Z,2.17
2023-01-11T06:25:36.289Z,2.13
2023-01-11T06:28:38.577Z,2.60
2023-01-11T06:31:40.191Z,2.08
2023-01-11T06:34:41.780Z,2.67
2023-01-11T06:37:43.362Z,2.90
2023-01-11T06:40:52.257Z,2.53
2023-01-11T06:43:53.760Z,2.17
2023-01-11T06:46:55.280Z,2.30
2023-01-11T06:49:56.787Z,2.97
2023-01-11T06:53:00.715Z,2.25
2023-01-11T06:56:02.264Z,2.60
2023-01-11T06:59:03.802Z,2.70
2023-01-11T07:02:06.243Z,2.22
2023-01-11T07:05:08.093Z,3.05
2023-01-11T07:08:09.938Z,2.30
2023-01-11T07:11:11.651Z,2.90
2023-01-11T07:14:13.499Z,3.10
2023-01-11T07:17:16.581Z,2.33
2023-01-11T07:20:18.086Z,3.10
2023-01-11T07:23:19.584Z,2.40
2023-01-11T07:26:21.149Z,3.47
2023-01-11T07:29:22.691Z,2.50
2023-01-11T07:32:24.133Z,2.70
2023-01-11T07:35:28.183Z,3.88
2023-01-11T07:38:30.537Z,2.65
2023-01-11T07:41:32.022Z,2.72
2023-01-11T07:44:33.505Z,2.33
2023-01-11T07:47:35.021Z,2.97
2023-01-11T07:50:38.285Z,3.00
2023-01-11T07:53:39.754Z,2.67
2023-01-11T07:56:41.214Z,2.45
2023-01-11T07:59:42.720Z,2.58
2023-01-11T08:02:44.281Z,2.63
2023-01-11T08:05:51.773Z,3.00
2023-01-11T08:08:53.243Z,3.10
2023-01-11T08:11:54.723Z,3.17
2023-01-11T08:14:56.180Z,2.80
2023-01-11T08:17:58.013Z,3.45
2023-01-11T08:20:59.591Z,2.80
2023-01-11T08:24:01.125Z,3.30
2023-01-11T08:27:03.796Z,2.92
2023-01-11T08:30:05.966Z,3.75
2023-01-11T08:33:07.492Z,2.80
2023-01-11T08:36:10.979Z,3.10
2023-01-11T08:39:12.475Z,3.50
2023-01-11T08:42:13.986Z,2.75
2023-01-11T08:45:15.542Z,2.90
2023-01-11T08:48:17.218Z,3.90
2023-01-11T08:51:18.827Z,3.15
2023-01-11T08:54:20.365Z,3.65
2023-01-11T08:57:21.857Z,2.83
2023-01-11T09:00:23.476Z,3.55
2023-01-11T09:03:24.963Z,3.10
2023-01-11T09:06:26.813Z,3.22
2023-01-11T09:09:28.459Z,3.22
2023-01-11T09:12:30.493Z,3.97
2023-01-11T09:15:32.055Z,3.25
2023-01-11T09:18:33.543Z,3.83
2023-01-11T09:21:35.071Z,3.25
2023-01-11T09:24:36.733Z,3.53
2023-01-11T09:27:38.318Z,3.17
2023-01-11T09:30:39.770Z,2.53
2023-01-11T09:33:41.313Z,2.88
2023-01-11T09:36:42.830Z,3.22
2023-01-11T09:39:44.274Z,2.88
2023-01-11T09:42:49.727Z,2.85
2023-01-11T09:45:51.783Z,3.35
2023-01-11T09:48:57.264Z,2.22
2023-01-11T09:52:14.069Z,2.55
2023-01-11T09:55:18.499Z,2.97
2023-01-11T09:58:50.655Z,3.22
2023-01-11T10:02:30.195Z,2.95
2023-01-11T10:05:34.755Z,2.65
2023-01-11T10:18:27.479Z,3.03
2023-01-11T10:20:43.255Z,2.65
2023-01-11T10:23:58.299Z,3.38
2023-01-11T10:27:01.361Z,2.47
2023-01-11T10:30:14.258Z,2.70
2023-01-11T10:33:21.749Z,2.35
2023-01-11T10:36:44.192Z,3.28
2023-01-11T10:40:19.490Z,2.58
2023-01-11T10:43:21.984Z,2.50
2023-01-11T10:46:26.443Z,3.22
2023-01-11T10:50:14.216Z,2.53
2023-01-11T10:53:25.219Z,2.55
2023-01-11T10:57:03.052Z,2.72
2023-01-11T11:00:13.749Z,2.65
2023-01-11T11:03:24.440Z,2.60
2023-01-11T11:06:40.507Z,2.80
2023-01-11T11:09:51.017Z,2.70
2023-01-11T11:13:08.168Z,2.58
2023-01-11T11:16:21.898Z,2.58
2023-01-11T11:19:26.365Z,2.38
2023-01-11T11:22:27.775Z,3.53
2023-01-11T11:25:31.383Z,2.92
2023-01-11T11:28:33.430Z,1.95
2023-01-11T11:31:38.531Z,2.20
2023-01-11T11:34:47.166Z,2.90
2023-01-11T11:37:48.682Z,2.35
2023-01-11T11:41:17.344Z,2.55
2023-01-11T11:44:27.001Z,2.55
2023-01-11T11:47:28.435Z,2.08
2023-01-11T11:50:44.740Z,2.92
2023-01-11T11:53:52.625Z,2.55
2023-01-11T11:56:56.263Z,2.53
2023-01-11T12:00:30.783Z,2.00
2023-01-11T12:03:34.004Z,2.53
2023-01-11T12:06:35.470Z,2.80
2023-01-11T12:09:41.340Z,2.53
2023-01-11T12:12:55.660Z,2.60
2023-01-11T12:18:59.999Z,2.10
2023-01-11T12:22:28.484Z,2.95
2023-01-11T12:25:30.124Z,2.17
2023-01-11T12:28:59.284Z,1.75
2023-01-11T12:32:19.637Z,2.20
2023-01-11T12:35:33.597Z,2.47
2023-01-11T12:38:39.199Z,2.33
2023-01-11T12:41:52.590Z,2.33
2023-01-11T12:45:36.171Z,3.30
2023-01-11T12:48:52.598Z,2.08
2023-01-11T12:52:15.212Z,2.20
2023-01-11T12:55:38.670Z,2.47
2023-01-11T12:58:43.012Z,2.25
2023-01-11T13:05:31.643Z,2.30
2023-01-11T13:08:54.277Z,2.13
2023-01-11T13:12:10.281Z,2.38
2023-01-11T13:15:26.992Z,2.17
2023-01-11T13:18:50.180Z,2.35
2023-01-11T13:21:55.680Z,2.47
2023-01-11T13:24:59.090Z,2.83
2023-01-11T13:28:03.765Z,2.45
2023-01-11T13:31:11.494Z,1.98
2023-01-11T13:34:23.645Z,2.10
2023-01-11T13:37:41.176Z,2.90
2023-01-11T13:40:48.193Z,2.25
2023-01-11T13:44:14.515Z,2.33
2023-01-11T13:47:23.512Z,2.20
2023-01-11T13:50:37.191Z,2.28
2023-01-11T13:54:19.110Z,2.20
2023-01-11T13:58:02.717Z,3.83
2023-01-11T14:01:10.431Z,2.60
2023-01-11T14:04:25.432Z,2.58
2023-01-11T14:07:44.618Z,2.40
2023-01-11T14:10:58.063Z,2.13
2023-01-11T14:14:24.651Z,2.38
2023-01-11T14:17:57.169Z,2.30
2023-01-11T14:21:13.897Z,3.20
2023-01-11T14:24:18.117Z,2.30
2023-01-11T14:27:47.503Z,2.72
2023-01-11T14:30:58.154Z,2.45
2023-01-11T14:34:24.267Z,2.28
2023-01-11T14:37:44.380Z,2.63
2023-01-11T14:41:07.152Z,2.65
2023-01-11T14:44:11.606Z,2.65
2023-01-11T14:47:35.777Z,2.70
2023-01-11T14:50:58.839Z,2.55
2023-01-11T14:54:11.095Z,2.92
2023-01-11T14:57:43.248Z,2.78
2023-01-11T15:00:45.470Z,3.10
2023-01-11T15:03:48.585Z,2.60
2023-01-11T15:06:54.769Z,3.63
2023-01-11T15:09:59.692Z,2.75
2023-01-11T15:13:06.251Z,2.78
2023-01-11T15:16:19.624Z,2.75
2023-01-11T15:19:25.916Z,3.10
2023-01-11T15:22:33.366Z,2.70
2023-01-11T15:25:35.769Z,2.15
2023-01-11T15:28:49.335Z,3.63
2023-01-11T15:31:53.655Z,3.08
2023-01-11T15:35:23.934Z,2.55
2023-01-11T15:38:37.363Z,2.53
2023-01-11T15:42:09.295Z,2.55
2023-01-11T15:45:37.130Z,3.03
2023-01-11T15:48:59.448Z,2.75
2023-01-11T15:52:23.725Z,2.85
2023-01-11T15:55:46.831Z,2.97
2023-01-11T15:59:03.566Z,4.03
2023-01-11T16:02:13.964Z,2.83
2023-01-11T16:05:21.664Z,3.40
2023-01-11T16:08:32.291Z,4.05
2023-01-11T16:11:59.521Z,2.85
2023-01-11T16:15:16.439Z,2.47
2023-01-11T16:18:27.824Z,2.83
2023-01-11T16:21:36.013Z,3.10
2023-01-11T16:24:42.971Z,2.25
2023-01-11T16:27:55.093Z,2.88
2023-01-11T16:31:05.983Z,3.10
2023-01-11T16:34:07.511Z,2.88
2023-01-11T16:37:20.688Z,2.50
2023-01-11T16:40:39.739Z,3.13
2023-01-11T16:43:49.990Z,2.88
2023-01-11T16:47:03.581Z,3.28
2023-01-11T16:50:24.572Z,3.37
2023-01-11T16:53:27.988Z,3.20
2023-01-11T16:56:29.521Z,3.20
2023-01-11T16:59:31.232Z,3.53
2023-01-11T17:02:35.547Z,2.80
2023-01-11T17:08:41.050Z,4.20
2023-01-11T17:15:07.175Z,3.28
2023-01-11T17:18:10.604Z,2.15
2023-01-11T17:21:27.480Z,2.78
2023-01-11T17:24:30.512Z,2.70
2023-01-11T17:27:40.865Z,2.22
2023-01-11T17:30:45.900Z,2.78
2023-01-11T17:33:47.593Z,2.83
2023-01-11T17:36:50.117Z,2.97
2023-01-11T17:39:52.251Z,2.30
2023-01-11T17:43:00.037Z,2.67
2023-01-11T17:46:02.811Z,2.33
2023-01-11T17:49:04.374Z,3.03
2023-01-11T17:52:24.001Z,2.03
2023-01-11T17:55:26.793Z,2.63
2023-01-11T17:58:29.306Z,3.20
2023-01-11T18:01:30.840Z,2.38
2023-01-11T18:04:32.369Z,2.35
2023-01-11T18:07:41.529Z,2.70
2023-01-11T18:10:50.770Z,2.20
2023-01-11T18:13:54.523Z,3.47
2023-01-11T18:16:58.836Z,2.95
2023-01-11T18:20:02.203Z,2.92
2023-01-11T18:23:15.704Z,2.73
2023-01-11T18:26:27.085Z,3.20
2023-01-11T18:29:37.815Z,3.38
2023-01-11T18:32:43.193Z,2.78
2023-01-11T18:35:47.272Z,3.63
2023-01-11T18:38:49.258Z,2.80
2023-01-11T18:41:50.902Z,2.90
2023-01-11T18:44:52.547Z,6.82
2023-01-11T18:47:54.055Z,3.70
2023-01-11T18:50:55.534Z,2.90
2023-01-11T18:53:57.062Z,2.58
2023-01-11T18:56:58.515Z,2.83
2023-01-11T18:59:59.981Z,2.90
2023-01-11T19:03:03.406Z,2.28
2023-01-11T19:06:06.123Z,2.77
2023-01-11T19:09:07.646Z,2.55
2023-01-11T19:12:09.088Z,2.83
2023-01-11T19:15:12.130Z,3.70
2023-01-11T19:18:13.770Z,2.92
2023-01-11T19:21:15.348Z,2.33
2023-01-11T19:24:16.845Z,2.90
2023-01-11T19:27:18.341Z,3.88
2023-01-11T19:30:19.957Z,2.28
2023-01-11T19:33:21.878Z,2.40
2023-01-11T19:36:23.421Z,2.53
2023-01-11T19:39:24.963Z,2.25
2023-01-11T19:42:26.446Z,1.65
2023-01-11T19:45:27.883Z,2.25
2023-01-11T19:48:31.386Z,2.05
2023-01-11T19:51:32.875Z,2.15
2023-01-11T19:54:34.341Z,2.78
2023-01-11T19:57:35.921Z,2.67
2023-01-11T20:00:37.471Z,2.70
2023-01-11T20:03:39.281Z,2.47
2023-01-11T20:06:41.452Z,2.40
2023-01-11T20:09:43.394Z,2.88
2023-01-11T20:12:44.819Z,2.30
2023-01-11T20:15:46.320Z,4.10
2023-01-11T20:18:56.205Z,3.20
2023-01-11T20:21:57.803Z,2.53
2023-01-11T20:24:59.344Z,2.65
2023-01-11T20:28:00.807Z,2.40
2023-01-11T20:31:06.457Z,3.60
2023-01-11T20:34:11.403Z,2.95
2023-01-11T20:37:12.932Z,2.47
2023-01-11T20:40:14.609Z,2.65
2023-01-11T20:43:16.061Z,2.95
2023-01-11T20:46:17.621Z,2.67
2023-01-11T20:49:21.995Z,2.47
2023-01-11T20:52:23.484Z,3.20
2023-01-11T20:55:25.144Z,2.67
2023-01-11T20:58:26.650Z,3.25
2023-01-11T21:01:28.623Z,3.28
2023-01-11T21:04:30.208Z,3.28
2023-01-11T21:07:32.520Z,3.20
2023-01-11T21:10:33.985Z,2.38
2023-01-11T21:13:35.841Z,3.15
2023-01-11T21:16:40.735Z,3.70
2023-01-11T21:19:42.206Z,4.10
2023-01-11T21:22:43.702Z,3.70
2023-01-11T21:25:45.201Z,3.10
2023-01-11T21:28:51.283Z,2.97
2023-01-11T21:31:52.715Z,2.13
2023-01-11T21:34:54.155Z,2.95
2023-01-11T21:37:55.614Z,2.30
2023-01-11T21:41:04.215Z,2.42
2023-01-11T21:44:06.571Z,2.38
2023-01-11T21:47:08.015Z,2.38
2023-01-11T21:50:10.144Z,2.97
2023-01-11T21:53:11.622Z,3.05
2023-01-11T21:56:13.123Z,2.67
2023-01-11T21:59:15.238Z,3.33
2023-01-11T22:02:16.736Z,3.38
2023-01-11T22:05:18.237Z,2.65
2023-01-11T22:08:19.799Z,2.63
2023-01-11T22:11:21.290Z,2.92
2023-01-11T22:14:22.793Z,2.40
2023-01-11T22:17:24.282Z,2.55
2023-01-11T22:20:25.757Z,2.50
2023-01-11T22:23:27.233Z,2.25
2023-01-11T22:26:28.854Z,3.08
2023-01-11T22:29:30.297Z,1.90
2023-01-11T22:32:31.802Z,2.55
2023-01-11T22:35:33.592Z,2.25
2023-01-11T22:38:35.042Z,3.30
2023-01-11T22:41:36.667Z,1.88
2023-01-11T22:44:38.150Z,3.00
2023-01-11T22:47:39.688Z,2.63
2023-01-11T22:50:41.186Z,2.60
2023-01-11T22:53:45.277Z,3.55
2023-01-11T22:56:47.078Z,2.65
2023-01-11T22:59:48.535Z,3.25
2023-01-11T23:02:50.055Z,2.25
2023-01-11T23:05:51.545Z,2.75
2023-01-11T23:08:53.869Z,2.60
2023-01-11T23:11:55.340Z,2.53
2023-01-11T23:14:56.798Z,2.30
2023-01-11T23:17:58.229Z,2.58
2023-01-11T23:21:04.142Z,2.30
2023-01-11T23:24:05.941Z,3.30
2023-01-11T23:27:07.459Z,2.38
2023-01-11T23:30:09.660Z,3.30
2023-01-11T23:33:11.109Z,3.60
2023-01-11T23:36:13.602Z,3.15
2023-01-11T23:39:16.512Z,3.30
2023-01-11T23:42:17.928Z,3.45
2023-01-11T23:45:19.406Z,2.97
2023-01-11T23:48:20.887Z,2.97
2023-01-11T23:51:22.369Z,3.70
2023-01-11T23:54:28.167Z,3.10
2023-01-11T23:57:29.660Z,3.88
